Asiatic Wave — 9V8790 — position and weather

sailwx.info

Track history (hours):
 
Tides and Currents Weather Stations Pressure Air Temp Water Temp Dewpoint Dewpoint Depression Visibility Wind Speed Wind Dir Waves Ship Positions

Asiatic Wave

Last reported at 2017-Feb-25 02:17 UTC. Time now 2017-Feb-26 13:14 UTC.
Position N 01°56' E 102°20'.

Length 148 m; draft 6.9 m.

Type: Ship (hazmat cat A). MMSI: 564211000.

Date/timePositionNaut miles runAvg speedWind from/ knotsBaromVisibWave heightAir tempDewpointWater temp
2017-Feb-25 02:17N 01°56' E 102°20'1013.9
2017-Feb-25 01:33N 01°51' E 102°29'1413.7
2017-Feb-25 00:31N 01°46' E 102°42'5413.6
2017-Feb-24 20:33N 01°14' E 103°25'1413.8
2017-Feb-24 19:33N 01°11' E 103°39'1212.0
2017-Feb-24 18:34N 01°12' E 103°51'1414.0
2017-Feb-24 17:33N 01°16' E 104°04'9 8.6
2017-Feb-24 16:33N 01°24' E 104°00'7 7.0
2017-Feb-24 15:31N 01°26' E 103°54'0 0.0
2017-Feb-24 14:31N 01°26' E 103°54'0 0.0
2017-Feb-24 13:30N 01°26' E 103°54'0 0.0
2017-Feb-24 12:33N 01°26' E 103°54'0 0.0
2017-Feb-24 11:32N 01°26' E 103°54'0 0.0
2017-Feb-24 10:33N 01°26' E 103°54'4 3.8
2017-Feb-24 09:33N 01°24' E 103°57'10 9.6
2017-Feb-24 08:33N 01°19' E 104°05'  
Track history (hours):
 
Tides and Currents Weather Stations Pressure Air Temp Water Temp Dewpoint Dewpoint Depression Visibility Wind Speed Wind Dir Waves Ship Positions

Asiatic Wave

Last reported at 2017-Feb-25 02:17 UTC. Time now 2017-Feb-26 13:14 UTC.
Position N 01°56' E 102°20'.

Length 148 m; draft 6.9 m.

Type: Ship (hazmat cat A). MMSI: 564211000.

Date/timePositionNaut miles runAvg speedWind from/ knotsBaromVisibWave heightAir tempDewpointWater temp
2017-Feb-25 02:17N 01°56' E 102°20'1013.9
2017-Feb-25 01:33N 01°51' E 102°29'1413.7
2017-Feb-25 00:31N 01°46' E 102°42'5413.6
2017-Feb-24 20:33N 01°14' E 103°25'1413.8
2017-Feb-24 19:33N 01°11' E 103°39'1212.0
2017-Feb-24 18:34N 01°12' E 103°51'1414.0
2017-Feb-24 17:33N 01°16' E 104°04'9 8.6
2017-Feb-24 16:33N 01°24' E 104°00'7 7.0
2017-Feb-24 15:31N 01°26' E 103°54'0 0.0
2017-Feb-24 14:31N 01°26' E 103°54'0 0.0
2017-Feb-24 13:30N 01°26' E 103°54'0 0.0
2017-Feb-24 12:33N 01°26' E 103°54'0 0.0
2017-Feb-24 11:32N 01°26' E 103°54'0 0.0
2017-Feb-24 10:33N 01°26' E 103°54'4 3.8
2017-Feb-24 09:33N 01°24' E 103°57'10 9.6
2017-Feb-24 08:33N 01°19' E 104°05'  

Dump ship's entire track history